Time;durP1;ratioP1;P1;durP2;ratioP2;P2;SDS_P1;SDS_P2;PMS_P1;PMS_P2;Temp;Humidity;BMP_temperature;BMP_pressure;BME280_temperature;BME280_humidity;BME280_pressure;Samples;Min_cycle;Max_cycle;Signal;HPM_P1;HPM_P2
2022/11/13 00:01:12;;;;;;;4.78;3.67;;;12.60;99.90;;;;;;5117024;28;20068;-75
2022/11/13 00:03:37;;;;;;;5.90;3.95;;;12.50;99.90;;;;;;5117167;28;20028;-75
2022/11/13 00:06:03;;;;;;;5.75;4.03;;;12.50;99.90;;;;;;5117328;28;20023;-75
2022/11/13 00:08:29;;;;;;;4.43;3.50;;;12.50;99.90;;;;;;5098820;28;20095;-75
2022/11/13 00:11:02;;;;;;;4.78;4.25;;;12.50;99.90;;;;;;5118575;28;20030;-75
2022/11/13 00:13:28;;;;;;;6.78;4.63;;;12.50;99.90;;;;;;5102633;28;20459;-75
2022/11/13 00:16:03;;;;;;;5.45;3.88;;;12.50;99.90;;;;;;5120710;28;20019;-75
2022/11/13 00:18:29;;;;;;;5.63;4.55;;;12.50;99.90;;;;;;5120784;28;20032;-75
2022/11/13 00:21:04;;;;;;;5.30;4.30;;;12.50;99.90;;;;;;5087156;28;20028;-75
2022/11/13 00:23:34;;;;;;;5.95;4.72;;;12.50;99.90;;;;;;5100441;28;20540;-75
2022/11/13 00:26:09;;;;;;;6.10;4.43;;;12.50;99.90;;;;;;5100304;28;20088;-75
2022/11/13 00:28:35;;;;;;;5.68;4.60;;;12.50;99.90;;;;;;5100280;28;20043;-75
2022/11/13 00:31:02;;;;;;;4.75;4.25;;;12.50;99.90;;;;;;5098822;28;20492;-75
2022/11/13 00:33:28;;;;;;;6.72;4.90;;;12.50;99.90;;;;;;5120644;28;20109;-75
2022/11/13 00:35:53;;;;;;;7.07;4.70;;;12.40;99.90;;;;;;5120372;28;20020;-75
2022/11/13 00:38:19;;;;;;;6.10;4.40;;;12.50;99.90;;;;;;5115249;28;20016;-75
2022/11/13 00:40:45;;;;;;;5.13;4.55;;;12.50;99.90;;;;;;5099885;28;20503;-75
2022/11/13 00:43:10;;;;;;;6.05;4.60;;;12.40;99.90;;;;;;5100036;28;20028;-75
2022/11/13 00:45:36;;;;;;;4.93;4.43;;;12.40;99.90;;;;;;5118436;28;20080;-75
2022/11/13 00:48:01;;;;;;;5.57;4.90;;;12.40;99.90;;;;;;5120181;28;20185;-75
2022/11/13 00:50:27;;;;;;;5.93;4.57;;;12.40;99.90;;;;;;5120040;28;20031;-75
2022/11/13 00:52:53;;;;;;;5.32;4.10;;;12.40;99.90;;;;;;5120226;28;20085;-75
2022/11/13 00:55:18;;;;;;;6.88;5.13;;;12.40;99.90;;;;;;5101734;28;20034;-75
2022/11/13 00:57:44;;;;;;;4.85;4.28;;;12.40;99.90;;;;;;5120280;28;20103;-75
2022/11/13 01:00:10;;;;;;;8.52;5.45;;;12.40;99.90;;;;;;5119622;28;20100;-75
2022/11/13 01:02:36;;;;;;;5.70;4.72;;;12.40;99.90;;;;;;5120091;28;20027;-75
2022/11/13 01:05:02;;;;;;;5.53;4.72;;;12.40;99.90;;;;;;5119789;28;20031;-75
2022/11/13 01:07:28;;;;;;;5.70;4.85;;;12.40;99.90;;;;;;5101599;28;20114;-75
2022/11/13 01:09:53;;;;;;;7.32;5.00;;;12.40;99.90;;;;;;5119628;28;20028;-75
2022/11/13 01:12:19;;;;;;;6.15;5.28;;;12.40;99.90;;;;;;5101496;28;20024;-75
2022/11/13 01:14:45;;;;;;;7.25;4.63;;;12.40;99.90;;;;;;5119568;28;20024;-75
2022/11/13 01:17:10;;;;;;;5.93;4.60;;;12.40;99.90;;;;;;5119591;28;20050;-75
2022/11/13 01:19:36;;;;;;;6.35;5.03;;;12.40;99.90;;;;;;5115361;28;20114;-75
2022/11/13 01:22:01;;;;;;;7.80;5.60;;;12.40;99.90;;;;;;5098714;28;20027;-75
2022/11/13 01:24:27;;;;;;;7.30;5.32;;;12.40;99.90;;;;;;5098915;28;20060;-74
2022/11/13 01:26:52;;;;;;;5.82;4.95;;;12.30;99.90;;;;;;5099196;28;20028;-74
2022/11/13 01:29:18;;;;;;;6.57;4.70;;;12.30;99.90;;;;;;5098910;28;20020;-74
2022/11/13 01:31:44;;;;;;;6.03;5.07;;;12.30;99.90;;;;;;5098765;28;20500;-74
2022/11/13 01:34:09;;;;;;;7.00;5.50;;;12.30;99.90;;;;;;5098866;28;20047;-74
2022/11/13 01:36:35;;;;;;;5.18;4.60;;;12.30;99.90;;;;;;5092000;28;20027;-74
2022/11/13 01:39:00;;;;;;;6.47;5.15;;;12.30;99.90;;;;;;5108112;28;20042;-74
2022/11/13 01:41:29;;;;;;;5.95;4.50;;;12.30;99.90;;;;;;5098929;28;20031;-74
2022/11/13 01:43:56;;;;;;;6.32;4.82;;;12.30;99.90;;;;;;5103221;28;20030;-74
2022/11/13 01:46:31;;;;;;;7.15;5.30;;;12.40;99.90;;;;;;5119063;28;20055;-74
2022/11/13 01:49:12;;;;;;;7.47;5.28;;;12.30;99.90;;;;;;5100663;28;20131;-74
2022/11/13 01:51:49;;;;;;;5.85;4.82;;;12.30;99.90;;;;;;5118929;28;20028;-74
2022/11/13 01:54:39;;;;;;;8.90;5.95;;;12.30;99.90;;;;;;5119173;28;20015;-74
2022/11/13 01:57:05;;;;;;;5.82;4.90;;;12.30;99.90;;;;;;5104146;28;20032;-75
2022/11/13 01:59:39;;;;;;;5.35;4.85;;;12.20;99.90;;;;;;5118974;28;20024;-75
2022/11/13 02:02:05;;;;;;;5.07;4.35;;;12.20;99.90;;;;;;5118522;28;20024;-75
2022/11/13 02:04:31;;;;;;;6.75;4.65;;;12.20;99.90;;;;;;5100539;28;20601;-75
2022/11/13 02:07:01;;;;;;;5.68;4.68;;;12.20;99.90;;;;;;5118652;28;20023;-75
2022/11/13 02:09:32;;;;;;;5.47;4.28;;;12.20;99.90;;;;;;5117955;28;20047;-75
2022/11/13 02:11:59;;;;;;;6.78;5.30;;;12.20;99.90;;;;;;5096541;28;20055;-75
2022/11/13 02:14:26;;;;;;;5.90;4.40;;;12.20;99.90;;;;;;5100343;28;20019;-75
2022/11/13 02:16:58;;;;;;;6.35;5.28;;;12.20;99.90;;;;;;5108512;28;20016;-75
2022/11/13 02:19:34;;;;;;;5.15;4.43;;;12.20;99.90;;;;;;5098707;28;20020;-75
2022/11/13 02:22:19;;;;;;;4.07;3.67;;;12.20;99.90;;;;;;5102218;28;20028;-75
2022/11/13 02:24:46;;;;;;;5.75;4.10;;;12.20;99.90;;;;;;5097909;28;20506;-75
2022/11/13 02:27:34;;;;;;;4.38;3.97;;;12.20;99.90;;;;;;5098019;28;20031;-75
2022/11/13 02:30:23;;;;;;;4.93;3.80;;;12.10;99.90;;;;;;5097654;28;20032;-75
2022/11/13 02:32:53;;;;;;;5.47;4.32;;;12.20;99.90;;;;;;5097751;28;20073;-75
2022/11/13 02:35:28;;;;;;;5.13;4.63;;;12.10;99.90;;;;;;5097171;28;20107;-75
2022/11/13 02:37:55;;;;;;;4.82;4.28;;;12.10;99.90;;;;;;5096281;28;20473;-75
2022/11/13 02:40:22;;;;;;;5.30;4.78;;;12.10;99.90;;;;;;5087909;28;20510;-75
2022/11/13 02:42:48;;;;;;;4.60;3.83;;;12.10;99.90;;;;;;5109329;28;20028;-75
2022/11/13 02:45:13;;;;;;;5.63;4.47;;;12.10;99.90;;;;;;5112720;28;20392;-75
2022/11/13 02:47:39;;;;;;;5.13;4.35;;;12.10;99.90;;;;;;5099604;28;20058;-75
2022/11/13 02:50:05;;;;;;;5.10;4.07;;;12.10;99.90;;;;;;5099445;28;20484;-75
2022/11/13 02:52:31;;;;;;;5.43;4.10;;;12.10;99.90;;;;;;5099675;28;20039;-75
2022/11/13 02:54:57;;;;;;;6.45;4.15;;;12.10;99.90;;;;;;5099637;28;20535;-75
2022/11/13 02:57:22;;;;;;;5.50;3.97;;;12.10;99.90;;;;;;5117973;28;20024;-75
2022/11/13 02:59:48;;;;;;;5.57;4.28;;;12.00;99.90;;;;;;5117635;28;20103;-75
2022/11/13 03:02:13;;;;;;;4.75;3.80;;;12.00;99.90;;;;;;5117750;28;20039;-75
2022/11/13 03:04:39;;;;;;;4.90;3.65;;;12.00;99.90;;;;;;5117822;28;20102;-75
2022/11/13 03:07:05;;;;;;;4.95;4.05;;;11.90;99.90;;;;;;5117918;28;20023;-75
2022/11/13 03:09:31;;;;;;;5.03;4.10;;;11.90;99.90;;;;;;5117565;28;20019;-75
2022/11/13 03:11:56;;;;;;;5.97;3.92;;;11.90;99.90;;;;;;5117867;28;20020;-75
2022/11/13 03:14:22;;;;;;;7.85;4.47;;;12.00;99.90;;;;;;5117643;28;20024;-75
2022/11/13 03:16:47;;;;;;;4.07;3.67;;;12.00;99.90;;;;;;5117493;28;20031;-75
2022/11/13 03:19:13;;;;;;;4.40;3.40;;;12.00;99.90;;;;;;5098321;28;20024;-75
2022/11/13 03:21:39;;;;;;;5.53;4.25;;;12.00;99.90;;;;;;5097383;28;20035;-75
2022/11/13 03:24:05;;;;;;;4.68;4.10;;;12.00;99.90;;;;;;5093940;28;20024;-75
2022/11/13 03:26:30;;;;;;;4.57;3.85;;;12.00;99.90;;;;;;5117725;28;20027;-75
2022/11/13 03:28:56;;;;;;;6.85;5.00;;;11.90;99.90;;;;;;5099252;28;20079;-75
2022/11/13 03:31:21;;;;;;;5.50;4.13;;;11.90;99.90;;;;;;5117325;28;20038;-75
2022/11/13 03:33:47;;;;;;;6.95;5.38;;;11.90;99.90;;;;;;5117559;28;20028;-75
2022/11/13 03:36:13;;;;;;;7.32;5.20;;;11.80;99.90;;;;;;5117630;28;20023;-75
2022/11/13 03:38:38;;;;;;;3.88;3.55;;;11.80;99.90;;;;;;5109454;28;20024;-75
2022/11/13 03:41:04;;;;;;;5.60;4.13;;;11.70;99.90;;;;;;5097226;28;20058;-75
2022/11/13 03:43:30;;;;;;;5.15;3.97;;;11.70;99.90;;;;;;5097888;28;20035;-75
2022/11/13 03:45:56;;;;;;;4.65;3.85;;;11.70;99.90;;;;;;5118750;28;20024;-75
2022/11/13 03:48:21;;;;;;;4.70;4.20;;;11.70;99.90;;;;;;5121193;28;20056;-75
2022/11/13 03:50:50;;;;;;;5.88;3.95;;;11.70;99.90;;;;;;5121321;28;20088;-75
2022/11/13 03:53:16;;;;;;;4.57;3.65;;;11.70;99.90;;;;;;5112698;28;20068;-75
2022/11/13 03:55:42;;;;;;;6.68;5.15;;;11.80;99.90;;;;;;5090434;28;20126;-75
2022/11/13 03:58:08;;;;;;;5.20;3.85;;;11.70;99.90;;;;;;5121189;28;20064;-75
2022/11/13 04:00:34;;;;;;;6.55;4.30;;;11.70;99.90;;;;;;5121011;28;20027;-75
2022/11/13 04:02:59;;;;;;;4.45;3.35;;;11.70;99.90;;;;;;5121179;28;20552;-75
2022/11/13 04:05:25;;;;;;;5.30;3.58;;;11.70;99.90;;;;;;5121273;28;20045;-75
2022/11/13 04:07:51;;;;;;;5.35;3.90;;;11.70;99.90;;;;;;5120909;28;20026;-75
2022/11/13 04:10:17;;;;;;;4.63;3.17;;;11.70;99.90;;;;;;5121099;28;20080;-75
2022/11/13 04:12:43;;;;;;;6.35;4.57;;;11.70;99.90;;;;;;5121073;28;20034;-75
2022/11/13 04:15:09;;;;;;;8.18;6.03;;;11.60;99.90;;;;;;5102351;28;20110;-75
2022/11/13 04:17:35;;;;;;;4.25;3.60;;;11.50;99.90;;;;;;5102610;28;20024;-75
2022/11/13 04:20:00;;;;;;;4.68;3.58;;;11.50;99.90;;;;;;5113307;28;20020;-75
2022/11/13 04:22:26;;;;;;;4.95;3.42;;;11.50;99.90;;;;;;5100335;28;20027;-75
2022/11/13 04:24:51;;;;;;;3.75;3.22;;;11.50;99.90;;;;;;5100605;28;20081;-75
2022/11/13 04:27:17;;;;;;;3.85;3.45;;;11.50;99.90;;;;;;5100336;28;20034;-75
2022/11/13 04:29:43;;;;;;;4.13;3.35;;;11.50;99.90;;;;;;5100059;28;20036;-75
2022/11/13 04:32:08;;;;;;;4.47;3.33;;;11.50;99.90;;;;;;5100000;28;20020;-75
2022/11/13 04:34:34;;;;;;;4.43;3.33;;;11.40;99.90;;;;;;5100439;28;20073;-75
2022/11/13 04:37:00;;;;;;;4.43;3.15;;;11.40;99.90;;;;;;5100006;28;20392;-75
2022/11/13 04:39:25;;;;;;;3.88;3.47;;;11.40;99.90;;;;;;5100325;28;20034;-75
2022/11/13 04:44:35;;;;;;;3.80;3.13;;;11.30;99.90;;;;;;5110399;28;20027;-75
2022/11/13 04:47:00;;;;;;;4.88;3.83;;;11.30;99.90;;;;;;5119991;28;20024;-75
2022/11/13 04:49:26;;;;;;;3.92;3.53;;;11.30;99.90;;;;;;5120036;28;20499;-75
2022/11/13 04:51:52;;;;;;;4.38;3.60;;;11.30;99.90;;;;;;5120147;28;20043;-75
2022/11/13 04:54:17;;;;;;;3.75;3.33;;;11.40;99.90;;;;;;5120411;28;20361;-75
2022/11/13 04:56:43;;;;;;;4.07;3.33;;;11.40;99.90;;;;;;5119529;28;20027;-75
2022/11/13 04:59:09;;;;;;;4.00;3.13;;;11.40;99.90;;;;;;5119773;28;20027;-75
2022/11/13 05:01:35;;;;;;;7.72;5.65;;;11.30;99.90;;;;;;5119637;28;20026;-75
2022/11/13 05:04:02;;;;;;;5.70;4.20;;;11.30;99.90;;;;;;5120250;28;20435;-75
2022/11/13 05:06:28;;;;;;;6.25;4.07;;;11.20;99.90;;;;;;5111420;28;20589;-75
2022/11/13 05:08:53;;;;;;;4.57;3.63;;;11.20;99.90;;;;;;5099637;28;20036;-75
2022/11/13 05:11:19;;;;;;;3.90;3.45;;;11.20;99.90;;;;;;5099263;28;20024;-74
2022/11/13 05:13:45;;;;;;;5.18;4.13;;;11.30;99.90;;;;;;5099600;28;20035;-74
2022/11/13 05:16:12;;;;;;;3.90;3.10;;;11.30;99.90;;;;;;5098754;28;20099;-75
2022/11/13 05:18:38;;;;;;;3.75;3.33;;;11.30;99.90;;;;;;5099512;28;20154;-75
2022/11/13 05:21:06;;;;;;;4.57;3.28;;;11.30;99.90;;;;;;5089900;28;20035;-75
2022/11/13 05:23:32;;;;;;;4.78;3.35;;;11.20;99.90;;;;;;5119710;28;20028;-75
2022/11/13 05:26:09;;;;;;;3.78;3.15;;;11.20;99.90;;;;;;5119469;28;20091;-75
2022/11/13 05:28:36;;;;;;;4.03;3.30;;;11.10;99.90;;;;;;5119737;28;20023;-75
2022/11/13 05:31:13;;;;;;;4.18;3.42;;;11.20;99.90;;;;;;5118968;28;20023;-74
2022/11/13 05:33:41;;;;;;;4.78;3.97;;;11.10;99.90;;;;;;5119262;28;20244;-74
2022/11/13 05:36:09;;;;;;;3.97;3.38;;;11.10;99.90;;;;;;5119587;28;20016;-75
2022/11/13 05:38:35;;;;;;;4.18;3.78;;;11.10;99.90;;;;;;5111582;28;20016;-75
2022/11/13 05:41:08;;;;;;;4.45;3.72;;;11.10;99.90;;;;;;5099091;28;20024;-75
2022/11/13 05:43:35;;;;;;;4.60;3.90;;;11.10;99.90;;;;;;5100220;28;20059;-75
2022/11/13 05:46:08;;;;;;;5.28;3.65;;;11.10;99.90;;;;;;5119048;28;20153;-74
2022/11/13 05:48:35;;;;;;;5.80;4.07;;;11.10;99.90;;;;;;5100651;28;20112;-74
2022/11/13 05:51:26;;;;;;;5.03;3.83;;;11.10;99.90;;;;;;5119248;28;20034;-75
2022/11/13 05:53:52;;;;;;;3.65;3.25;;;11.10;99.90;;;;;;5107082;28;20036;-75
2022/11/13 05:56:29;;;;;;;5.10;3.63;;;11.10;99.90;;;;;;5119052;28;20012;-75
2022/11/13 05:58:55;;;;;;;4.10;3.28;;;11.10;99.90;;;;;;5119047;28;20024;-75
2022/11/13 06:01:22;;;;;;;4.35;3.50;;;11.10;99.90;;;;;;5118534;28;20034;-74
2022/11/13 06:03:49;;;;;;;6.05;4.20;;;11.10;99.90;;;;;;5118980;28;20053;-74
2022/11/13 06:06:17;;;;;;;4.10;3.33;;;11.10;99.90;;;;;;5100362;28;20484;-75
2022/11/13 06:08:44;;;;;;;3.78;3.28;;;11.10;99.90;;;;;;5118522;28;20031;-75
2022/11/13 06:11:12;;;;;;;4.68;3.90;;;11.10;99.90;;;;;;5118504;28;20065;-74
2022/11/13 06:13:38;;;;;;;4.75;3.92;;;11.10;99.90;;;;;;5118714;28;20037;-75
2022/11/13 06:16:07;;;;;;;5.45;3.92;;;11.10;99.90;;;;;;5118279;28;20024;-75
2022/11/13 06:18:34;;;;;;;5.85;3.60;;;11.10;99.90;;;;;;5118640;28;20463;-75
2022/11/13 06:21:05;;;;;;;4.35;3.28;;;11.10;99.90;;;;;;5102363;28;20031;-74
2022/11/13 06:23:35;;;;;;;3.97;3.22;;;11.10;99.90;;;;;;5098244;28;20032;-74
2022/11/13 06:26:23;;;;;;;4.75;3.25;;;11.10;99.90;;;;;;5097945;28;20416;-74
2022/11/13 06:28:50;;;;;;;4.10;3.13;;;11.10;99.90;;;;;;5098012;28;20032;-74
2022/11/13 06:31:21;;;;;;;5.00;4.30;;;11.10;99.90;;;;;;5097662;28;20493;-74
2022/11/13 06:33:47;;;;;;;3.85;3.22;;;11.00;99.90;;;;;;5097768;28;20031;-74
2022/11/13 06:36:18;;;;;;;4.43;3.72;;;11.00;99.90;;;;;;5098098;28;20477;-75
2022/11/13 06:38:44;;;;;;;5.30;3.72;;;11.00;99.90;;;;;;5092834;28;20063;-75
2022/11/13 06:41:12;;;;;;;4.30;3.80;;;11.00;99.90;;;;;;5118366;28;20020;-75
2022/11/13 06:43:38;;;;;;;4.78;3.67;;;11.00;99.90;;;;;;5085906;28;20032;-75
2022/11/13 06:46:06;;;;;;;4.38;3.90;;;10.90;99.90;;;;;;5118041;28;20543;-75
2022/11/13 06:48:32;;;;;;;5.00;3.40;;;10.90;99.90;;;;;;5117865;28;20083;-75
2022/11/13 06:51:03;;;;;;;3.53;2.92;;;10.90;99.90;;;;;;5118012;28;20068;-75
2022/11/13 06:53:29;;;;;;;4.30;3.42;;;10.90;99.90;;;;;;5099677;28;20034;-75
2022/11/13 06:55:55;;;;;;;2.80;2.50;;;11.00;99.90;;;;;;5118044;28;20054;-75
2022/11/13 06:58:21;;;;;;;4.72;3.65;;;11.00;99.90;;;;;;5117840;28;20034;-74
2022/11/13 07:00:46;;;;;;;5.05;3.80;;;11.00;99.90;;;;;;5117680;28;20444;-74
2022/11/13 07:03:17;;;;;;;4.20;3.80;;;11.00;99.90;;;;;;5117759;28;20023;-74
2022/11/13 07:05:43;;;;;;;4.10;3.50;;;11.00;99.90;;;;;;5099562;28;20032;-74
2022/11/13 07:08:09;;;;;;;4.07;3.40;;;11.10;99.90;;;;;;5117688;28;20030;-74
2022/11/13 07:10:34;;;;;;;4.63;3.42;;;11.10;99.90;;;;;;5099419;28;20438;-74
2022/11/13 07:13:00;;;;;;;5.35;4.53;;;11.10;99.90;;;;;;5117693;28;20046;-74
2022/11/13 07:15:26;;;;;;;4.07;3.60;;;11.10;99.90;;;;;;5117483;28;20024;-74
2022/11/13 07:17:52;;;;;;;5.75;4.32;;;11.20;99.90;;;;;;5117284;28;20050;-74
2022/11/13 07:20:18;;;;;;;5.97;4.32;;;11.10;99.90;;;;;;5108036;28;20027;-74
2022/11/13 07:22:43;;;;;;;7.53;4.65;;;11.10;99.90;;;;;;5087118;28;20474;-74
2022/11/13 07:25:09;;;;;;;5.80;4.80;;;11.20;99.90;;;;;;5121946;28;20031;-74
2022/11/13 07:27:34;;;;;;;4.82;3.85;;;11.20;99.90;;;;;;5107772;28;20112;-74
2022/11/13 07:30:00;;;;;;;3.83;3.30;;;11.20;99.90;;;;;;5101910;28;20027;-74
2022/11/13 07:32:26;;;;;;;5.45;4.60;;;11.20;99.90;;;;;;5103318;28;20498;-73
2022/11/13 07:34:51;;;;;;;4.20;3.70;;;11.20;99.90;;;;;;5121770;28;20510;-73
2022/11/13 07:37:17;;;;;;;4.57;4.00;;;11.30;99.90;;;;;;5121534;28;20055;-73
2022/11/13 07:39:43;;;;;;;5.35;3.60;;;11.30;99.90;;;;;;5086243;28;20024;-72
2022/11/13 07:42:08;;;;;;;4.40;3.90;;;11.30;99.90;;;;;;5101109;28;20024;-72
2022/11/13 07:44:34;;;;;;;7.00;5.32;;;11.30;99.90;;;;;;5107117;28;20028;-72
2022/11/13 07:47:00;;;;;;;5.18;4.07;;;11.30;99.90;;;;;;5103814;28;20536;-73
2022/11/13 07:49:25;;;;;;;5.95;4.63;;;11.30;99.90;;;;;;5100937;28;20497;-74
2022/11/13 07:51:51;;;;;;;4.05;3.55;;;11.30;99.90;;;;;;5100853;28;20039;-74
2022/11/13 07:54:17;;;;;;;5.25;4.18;;;11.40;99.90;;;;;;5100958;28;20038;-74
2022/11/13 07:56:43;;;;;;;4.18;3.60;;;11.40;99.90;;;;;;5100776;28;20075;-73
2022/11/13 07:59:09;;;;;;;5.20;4.30;;;11.40;99.90;;;;;;5100794;28;20017;-73
2022/11/13 08:01:35;;;;;;;5.85;4.10;;;11.40;99.90;;;;;;5100329;28;20416;-73
2022/11/13 08:04:00;;;;;;;5.35;4.15;;;11.40;99.90;;;;;;5092392;28;20027;-73
2022/11/13 08:06:26;;;;;;;4.22;3.63;;;11.40;99.90;;;;;;5121104;28;20038;-72
2022/11/13 08:08:52;;;;;;;5.22;4.22;;;11.40;99.90;;;;;;5102426;28;20110;-73
2022/11/13 08:11:18;;;;;;;4.93;3.83;;;11.40;99.90;;;;;;5120823;28;20066;-74
2022/11/13 08:13:44;;;;;;;6.40;4.60;;;11.40;99.90;;;;;;5120909;28;20496;-74
2022/11/13 08:16:10;;;;;;;3.63;3.25;;;11.40;99.90;;;;;;5118878;28;20140;-74
2022/11/13 08:18:36;;;;;;;4.78;4.25;;;11.40;99.90;;;;;;5119987;28;20028;-74
2022/11/13 08:21:03;;;;;;;4.75;3.78;;;11.40;99.90;;;;;;5103756;28;20058;-74
2022/11/13 08:23:30;;;;;;;5.40;4.50;;;11.50;99.90;;;;;;5099818;28;20504;-74
2022/11/13 08:25:55;;;;;;;3.55;3.22;;;11.40;99.90;;;;;;5100252;28;20024;-74
2022/11/13 08:28:21;;;;;;;4.53;3.70;;;11.50;99.90;;;;;;5092133;28;20034;-74
2022/11/13 08:30:47;;;;;;;5.18;3.80;;;11.50;99.90;;;;;;5119028;28;20396;-74
2022/11/13 08:33:12;;;;;;;4.25;3.53;;;11.50;99.90;;;;;;5117261;28;20035;-74
2022/11/13 08:35:38;;;;;;;4.50;3.67;;;11.60;99.90;;;;;;5118577;28;20051;-74
2022/11/13 08:38:06;;;;;;;4.78;3.65;;;11.60;99.90;;;;;;5115481;28;20096;-74
2022/11/13 08:40:33;;;;;;;5.07;4.10;;;11.60;99.90;;;;;;5097936;28;20024;-74
2022/11/13 08:43:00;;;;;;;4.18;3.70;;;11.70;99.90;;;;;;5098211;28;20043;-74
2022/11/13 08:45:26;;;;;;;4.45;4.03;;;11.70;99.90;;;;;;5097384;28;20038;-74
2022/11/13 08:47:52;;;;;;;7.47;4.18;;;11.70;99.90;;;;;;5120220;28;20106;-74
2022/11/13 08:50:17;;;;;;;6.07;4.75;;;11.70;99.90;;;;;;5120086;28;20065;-74
2022/11/13 08:52:43;;;;;;;3.75;3.38;;;11.70;99.90;;;;;;5120327;28;20024;-74
2022/11/13 08:55:08;;;;;;;4.05;3.60;;;11.70;99.90;;;;;;5101423;28;20032;-74
2022/11/13 08:57:34;;;;;;;5.00;4.20;;;11.70;99.90;;;;;;5099779;28;20024;-74
2022/11/13 09:00:00;;;;;;;4.70;4.20;;;11.70;99.90;;;;;;5099271;28;20020;-74
2022/11/13 09:02:26;;;;;;;4.70;3.35;;;11.70;99.90;;;;;;5099728;28;20066;-74
2022/11/13 09:04:52;;;;;;;3.75;3.22;;;11.70;99.90;;;;;;5096707;28;20016;-74
2022/11/13 09:07:18;;;;;;;6.00;3.88;;;11.70;99.90;;;;;;5101629;28;20054;-74
2022/11/13 09:09:43;;;;;;;5.60;4.70;;;11.70;99.90;;;;;;5075036;28;20021;-74
2022/11/13 09:12:09;;;;;;;3.63;3.25;;;11.80;99.90;;;;;;5096475;28;20025;-74
2022/11/13 09:14:36;;;;;;;5.88;4.72;;;11.80;99.90;;;;;;5098780;28;20035;-74
2022/11/13 09:17:01;;;;;;;4.22;3.83;;;11.80;99.90;;;;;;5099327;28;20072;-74
2022/11/13 09:19:27;;;;;;;5.50;4.95;;;11.80;99.90;;;;;;5105294;28;21606;-74
2022/11/13 09:21:53;;;;;;;4.32;3.67;;;11.90;99.90;;;;;;5103267;28;20020;-74
2022/11/13 09:24:19;;;;;;;4.38;3.97;;;11.90;99.90;;;;;;5091912;28;20139;-74
2022/11/13 09:26:44;;;;;;;4.03;3.63;;;11.90;99.90;;;;;;5099244;28;20438;-74
2022/11/13 09:29:10;;;;;;;3.85;3.45;;;11.90;99.90;;;;;;5099079;28;20043;-74
2022/11/13 09:31:39;;;;;;;4.55;3.97;;;12.00;99.90;;;;;;5100034;28;20023;-74
2022/11/13 09:34:06;;;;;;;4.68;4.18;;;12.00;99.90;;;;;;5096835;28;20016;-73
2022/11/13 09:36:31;;;;;;;6.65;5.60;;;12.10;99.90;;;;;;5099374;28;20078;-74
2022/11/13 09:38:59;;;;;;;5.95;5.07;;;12.10;99.90;;;;;;5073280;28;20028;-74
2022/11/13 09:41:30;;;;;;;4.07;3.67;;;12.10;99.90;;;;;;5099437;28;20027;-74
2022/11/13 09:44:02;;;;;;;3.97;3.55;;;12.10;99.90;;;;;;5105894;28;20101;-74
2022/11/13 09:46:40;;;;;;;5.35;4.40;;;12.10;99.90;;;;;;5098338;28;20020;-74
2022/11/13 09:49:27;;;;;;;6.65;4.90;;;12.10;99.90;;;;;;5098789;28;20152;-73
2022/11/13 09:51:56;;;;;;;5.55;4.40;;;12.10;99.90;;;;;;5097504;28;20050;-74
2022/11/13 09:54:22;;;;;;;6.20;4.88;;;12.10;99.90;;;;;;5100766;28;20041;-74
2022/11/13 09:57:18;;;;;;;6.30;4.72;;;12.20;99.90;;;;;;5118932;28;20024;-74
2022/11/13 09:59:51;;;;;;;8.00;5.60;;;12.20;99.90;;;;;;5118713;28;20023;-74
2022/11/13 10:02:41;;;;;;;5.10;4.18;;;12.20;99.90;;;;;;5118861;28;20032;-74
2022/11/13 10:05:31;;;;;;;5.15;3.95;;;12.30;99.90;;;;;;5100328;28;20088;-74
2022/11/13 10:08:20;;;;;;;6.22;4.72;;;12.30;99.90;;;;;;5118560;28;20019;-74
2022/11/13 10:10:47;;;;;;;7.18;5.15;;;12.30;99.90;;;;;;5099021;28;20039;-74
2022/11/13 10:13:41;;;;;;;6.10;5.43;;;12.30;99.90;;;;;;5098191;28;20027;-74
2022/11/13 10:16:26;;;;;;;4.57;3.92;;;12.20;99.90;;;;;;5097928;28;20855;-74
2022/11/13 10:18:57;;;;;;;4.80;3.90;;;12.20;99.90;;;;;;5098312;28;20039;-74
2022/11/13 10:21:42;;;;;;;6.10;5.03;;;12.30;99.90;;;;;;5117262;28;20032;-74
2022/11/13 10:24:24;;;;;;;5.68;4.85;;;12.30;99.90;;;;;;5100129;28;20026;-74
2022/11/13 10:26:49;;;;;;;5.53;4.25;;;12.40;99.90;;;;;;5118456;28;20400;-74
2022/11/13 10:29:19;;;;;;;4.30;3.90;;;12.40;99.90;;;;;;5118298;28;20030;-74
2022/11/13 10:31:48;;;;;;;5.68;4.18;;;12.40;99.90;;;;;;5099475;28;20031;-74
2022/11/13 10:34:15;;;;;;;4.30;3.88;;;12.50;99.90;;;;;;5118227;28;20023;-74
2022/11/13 10:36:58;;;;;;;4.05;3.65;;;12.50;99.90;;;;;;5118443;28;20041;-74
2022/11/13 10:39:23;;;;;;;4.13;3.72;;;12.60;99.90;;;;;;5098319;28;20026;-74
2022/11/13 10:41:51;;;;;;;4.80;4.20;;;12.60;99.90;;;;;;5097757;28;20032;-74
2022/11/13 10:44:34;;;;;;;5.55;4.82;;;12.60;99.90;;;;;;5105532;28;20030;-74
2022/11/13 10:47:21;;;;;;;5.40;4.40;;;12.60;99.90;;;;;;5099612;28;20024;-74
2022/11/13 10:49:46;;;;;;;7.00;6.03;;;12.70;99.90;;;;;;5117907;28;20159;-74
2022/11/13 10:52:33;;;;;;;7.05;4.65;;;12.70;99.90;;;;;;5117748;28;20033;-74
2022/11/13 10:55:23;;;;;;;7.00;5.30;;;12.70;99.90;;;;;;5098973;28;20054;-75
2022/11/13 10:58:00;;;;;;;7.82;6.60;;;12.80;99.90;;;;;;5107072;28;20032;-74
2022/11/13 11:00:35;;;;;;;5.70;4.60;;;12.80;99.90;;;;;;5091568;28;20084;-74
2022/11/13 11:03:01;;;;;;;7.65;6.22;;;12.80;99.90;;;;;;5099562;28;20034;-74
2022/11/13 11:05:27;;;;;;;7.85;5.75;;;12.80;99.90;;;;;;5117919;28;20027;-74
2022/11/13 11:07:54;;;;;;;22.63;12.60;;;12.80;99.90;;;;;;5099488;28;20032;-74
2022/11/13 11:10:20;;;;;;;9.73;6.65;;;12.80;99.90;;;;;;5099542;28;20020;-74
2022/11/13 11:13:00;;;;;;;8.25;6.30;;;12.80;99.90;;;;;;5117724;28;20024;-74
2022/11/13 11:15:35;;;;;;;7.47;5.60;;;12.80;99.90;;;;;;5117749;28;20096;-74
2022/11/13 11:18:05;;;;;;;8.73;6.80;;;12.80;99.90;;;;;;5117619;28;20027;-74
2022/11/13 11:20:47;;;;;;;7.55;5.85;;;12.90;99.90;;;;;;5105826;28;20071;-74
2022/11/13 11:23:51;;;;;;;6.78;5.03;;;12.90;99.90;;;;;;5092375;28;20027;-74
2022/11/13 11:26:31;;;;;;;7.22;6.28;;;12.90;99.90;;;;;;5117534;28;20019;-74
2022/11/13 11:29:13;;;;;;;6.03;4.90;;;13.00;99.90;;;;;;5117627;28;20437;-74
2022/11/13 11:31:49;;;;;;;5.75;4.95;;;13.00;99.90;;;;;;5117269;28;20038;-74
2022/11/13 11:34:38;;;;;;;8.10;5.55;;;13.00;99.90;;;;;;5117534;28;20027;-74
2022/11/13 11:37:13;;;;;;;6.55;5.57;;;13.10;99.90;;;;;;5058508;28;20055;-74
2022/11/13 11:40:01;;;;;;;6.25;5.20;;;13.20;99.90;;;;;;5101032;28;20028;-74
2022/11/13 11:42:50;;;;;;;6.32;5.07;;;13.20;99.90;;;;;;5097047;28;20068;-74
2022/11/13 11:45:16;;;;;;;7.72;6.50;;;13.30;99.90;;;;;;5057279;28;20039;-74
2022/11/13 11:47:42;;;;;;;5.65;4.40;;;13.30;99.90;;;;;;5117235;28;20384;-74
2022/11/13 11:50:17;;;;;;;7.18;5.88;;;13.30;99.90;;;;;;5117274;28;20027;-74
2022/11/13 11:53:07;;;;;;;6.10;4.78;;;13.30;99.90;;;;;;5117487;28;20381;-74
2022/11/13 11:55:42;;;;;;;6.03;5.25;;;13.40;99.90;;;;;;5099250;28;20123;-74
2022/11/13 11:58:41;;;;;;;6.35;4.47;;;13.40;99.90;;;;;;5098960;28;20473;-74
2022/11/13 12:01:20;;;;;;;5.75;4.80;;;13.50;99.90;;;;;;5117063;28;20035;-74
2022/11/13 12:04:05;;;;;;;5.40;4.57;;;13.50;99.90;;;;;;5098980;28;20026;-74
2022/11/13 12:06:49;;;;;;;4.10;3.70;;;13.50;99.90;;;;;;5117823;28;20029;-74
2022/11/13 12:09:28;;;;;;;4.43;3.92;;;13.60;99.90;;;;;;5120934;28;20102;-74
2022/11/13 12:12:16;;;;;;;5.32;4.13;;;13.60;99.90;;;;;;5120904;28;20539;-74
2022/11/13 12:14:51;;;;;;;7.03;4.68;;;13.60;99.90;;;;;;5120681;28;20024;-74
2022/11/13 12:17:50;;;;;;;3.95;3.50;;;13.60;99.90;;;;;;5121018;28;20030;-74
2022/11/13 12:20:16;;;;;;;5.60;4.45;;;13.70;99.90;;;;;;5092589;28;20165;-74
2022/11/13 12:23:01;;;;;;;5.10;4.18;;;13.80;99.90;;;;;;5100333;28;20056;-74
2022/11/13 12:25:48;;;;;;;4.72;4.25;;;13.80;99.90;;;;;;5095491;28;20527;-74
2022/11/13 12:28:28;;;;;;;8.23;5.40;;;13.80;99.90;;;;;;5120831;28;20039;-74
2022/11/13 12:31:04;;;;;;;6.05;4.75;;;13.90;99.90;;;;;;5120155;28;20051;-74
2022/11/13 12:33:44;;;;;;;6.78;5.32;;;13.90;99.90;;;;;;5120701;28;20015;-74
2022/11/13 12:36:12;;;;;;;5.75;4.90;;;13.90;99.90;;;;;;5120750;28;20094;-74
2022/11/13 12:38:51;;;;;;;7.60;5.93;;;13.90;99.90;;;;;;5112399;28;20028;-74
2022/11/13 12:41:23;;;;;;;5.50;4.93;;;14.00;99.90;;;;;;5100120;28;20028;-74
2022/11/13 12:44:19;;;;;;;6.55;5.78;;;14.00;99.90;;;;;;5103431;28;20436;-74
2022/11/13 12:46:46;;;;;;;6.60;5.55;;;14.00;99.90;;;;;;5120380;28;20087;-74
2022/11/13 12:49:21;;;;;;;5.32;4.65;;;14.00;99.90;;;;;;5120089;28;20048;-74
2022/11/13 12:52:15;;;;;;;5.30;4.78;;;14.00;99.90;;;;;;5101718;28;20023;-74
2022/11/13 12:54:41;;;;;;;6.75;5.85;;;13.90;99.90;;;;;;5120391;28;20049;-74
2022/11/13 12:57:13;;;;;;;6.03;5.43;;;14.00;99.90;;;;;;5120211;28;20388;-74
2022/11/13 12:59:47;;;;;;;6.30;5.55;;;14.00;99.90;;;;;;5119802;28;20526;-74
2022/11/13 13:02:13;;;;;;;6.00;5.32;;;14.00;99.90;;;;;;5120225;28;20035;-74
2022/11/13 13:05:06;;;;;;;5.88;5.22;;;14.10;99.90;;;;;;5119864;28;20110;-74